sensor_id;sensor_type;location;lat;lon;timestamp;P1;durP1;ratioP1;P2;durP2;ratioP2
14994;SDS011;7593;49.006;8.372;2023-04-25T00:01:27;6.55;;;5.10;;
14994;SDS011;7593;49.006;8.372;2023-04-25T00:03:54;7.32;;;5.93;;
14994;SDS011;7593;49.006;8.372;2023-04-25T00:06:21;6.25;;;5.65;;
14994;SDS011;7593;49.006;8.372;2023-04-25T00:08:51;7.25;;;5.68;;
14994;SDS011;7593;49.006;8.372;2023-04-25T00:11:19;4.40;;;4.00;;
14994;SDS011;7593;49.006;8.372;2023-04-25T00:13:46;4.90;;;4.40;;
14994;SDS011;7593;49.006;8.372;2023-04-25T00:16:14;7.82;;;4.70;;
14994;SDS011;7593;49.006;8.372;2023-04-25T00:18:41;8.02;;;5.75;;
14994;SDS011;7593;49.006;8.372;2023-04-25T00:21:08;6.25;;;5.00;;
14994;SDS011;7593;49.006;8.372;2023-04-25T00:23:35;6.22;;;5.07;;
14994;SDS011;7593;49.006;8.372;2023-04-25T00:26:02;6.65;;;5.10;;
14994;SDS011;7593;49.006;8.372;2023-04-25T00:28:30;7.63;;;5.30;;
14994;SDS011;7593;49.006;8.372;2023-04-25T00:30:57;5.32;;;4.47;;
14994;SDS011;7593;49.006;8.372;2023-04-25T00:33:24;6.25;;;4.63;;
14994;SDS011;7593;49.006;8.372;2023-04-25T00:35:51;7.32;;;4.60;;
14994;SDS011;7593;49.006;8.372;2023-04-25T00:38:18;4.82;;;4.28;;
14994;SDS011;7593;49.006;8.372;2023-04-25T00:40:44;5.05;;;4.32;;
14994;SDS011;7593;49.006;8.372;2023-04-25T00:43:11;5.40;;;4.35;;
14994;SDS011;7593;49.006;8.372;2023-04-25T00:45:39;4.25;;;3.80;;
14994;SDS011;7593;49.006;8.372;2023-04-25T00:48:06;4.57;;;4.10;;
14994;SDS011;7593;49.006;8.372;2023-04-25T00:50:33;5.43;;;4.20;;
14994;SDS011;7593;49.006;8.372;2023-04-25T00:53:00;5.30;;;4.10;;
14994;SDS011;7593;49.006;8.372;2023-04-25T00:55:28;6.05;;;4.10;;
14994;SDS011;7593;49.006;8.372;2023-04-25T00:57:56;4.50;;;3.78;;
14994;SDS011;7593;49.006;8.372;2023-04-25T01:00:23;3.90;;;3.50;;
14994;SDS011;7593;49.006;8.372;2023-04-25T01:02:51;4.47;;;3.92;;
14994;SDS011;7593;49.006;8.372;2023-04-25T01:05:18;4.85;;;4.07;;
14994;SDS011;7593;49.006;8.372;2023-04-25T01:07:45;5.38;;;3.90;;
14994;SDS011;7593;49.006;8.372;2023-04-25T01:10:13;5.03;;;4.00;;
14994;SDS011;7593;49.006;8.372;2023-04-25T01:12:40;5.45;;;3.90;;
14994;SDS011;7593;49.006;8.372;2023-04-25T01:15:07;5.18;;;3.80;;
14994;SDS011;7593;49.006;8.372;2023-04-25T01:17:34;4.97;;;4.10;;
14994;SDS011;7593;49.006;8.372;2023-04-25T01:20:04;4.85;;;3.97;;
14994;SDS011;7593;49.006;8.372;2023-04-25T01:22:35;4.55;;;4.15;;
14994;SDS011;7593;49.006;8.372;2023-04-25T01:25:03;4.55;;;4.05;;
14994;SDS011;7593;49.006;8.372;2023-04-25T01:27:30;4.63;;;4.22;;
14994;SDS011;7593;49.006;8.372;2023-04-25T01:29:57;5.10;;;4.38;;
14994;SDS011;7593;49.006;8.372;2023-04-25T01:32:24;4.35;;;3.90;;
14994;SDS011;7593;49.006;8.372;2023-04-25T01:34:52;4.78;;;4.05;;
14994;SDS011;7593;49.006;8.372;2023-04-25T01:37:19;4.00;;;3.67;;
14994;SDS011;7593;49.006;8.372;2023-04-25T01:39:47;4.65;;;4.10;;
14994;SDS011;7593;49.006;8.372;2023-04-25T01:42:15;4.07;;;3.63;;
14994;SDS011;7593;49.006;8.372;2023-04-25T01:44:42;4.35;;;3.75;;
14994;SDS011;7593;49.006;8.372;2023-04-25T01:47:08;4.28;;;3.88;;
14994;SDS011;7593;49.006;8.372;2023-04-25T01:49:36;5.22;;;4.03;;
14994;SDS011;7593;49.006;8.372;2023-04-25T01:52:03;4.93;;;4.00;;
14994;SDS011;7593;49.006;8.372;2023-04-25T01:54:30;4.70;;;4.30;;
14994;SDS011;7593;49.006;8.372;2023-04-25T01:56:58;4.20;;;3.80;;
14994;SDS011;7593;49.006;8.372;2023-04-25T01:59:25;5.45;;;3.85;;
14994;SDS011;7593;49.006;8.372;2023-04-25T02:01:52;4.47;;;4.00;;
14994;SDS011;7593;49.006;8.372;2023-04-25T02:04:19;3.80;;;3.50;;
14994;SDS011;7593;49.006;8.372;2023-04-25T02:06:46;4.43;;;3.85;;
14994;SDS011;7593;49.006;8.372;2023-04-25T02:09:12;4.10;;;3.63;;
14994;SDS011;7593;49.006;8.372;2023-04-25T02:11:39;4.20;;;3.88;;
14994;SDS011;7593;49.006;8.372;2023-04-25T02:14:07;5.10;;;3.75;;
14994;SDS011;7593;49.006;8.372;2023-04-25T02:16:34;4.28;;;3.88;;
14994;SDS011;7593;49.006;8.372;2023-04-25T02:19:01;3.88;;;3.58;;
14994;SDS011;7593;49.006;8.372;2023-04-25T02:21:27;4.28;;;3.88;;
14994;SDS011;7593;49.006;8.372;2023-04-25T02:23:55;4.70;;;4.10;;
14994;SDS011;7593;49.006;8.372;2023-04-25T02:26:22;4.70;;;4.13;;
14994;SDS011;7593;49.006;8.372;2023-04-25T02:28:49;4.82;;;4.20;;
14994;SDS011;7593;49.006;8.372;2023-04-25T02:31:18;4.93;;;4.43;;
14994;SDS011;7593;49.006;8.372;2023-04-25T02:33:46;4.50;;;4.10;;
14994;SDS011;7593;49.006;8.372;2023-04-25T02:36:13;5.30;;;4.55;;
14994;SDS011;7593;49.006;8.372;2023-04-25T02:38:40;5.05;;;4.55;;
14994;SDS011;7593;49.006;8.372;2023-04-25T02:41:07;5.25;;;4.43;;
14994;SDS011;7593;49.006;8.372;2023-04-25T02:43:33;4.88;;;4.45;;
14994;SDS011;7593;49.006;8.372;2023-04-25T02:46:00;4.57;;;4.18;;
14994;SDS011;7593;49.006;8.372;2023-04-25T02:48:28;5.10;;;4.43;;
14994;SDS011;7593;49.006;8.372;2023-04-25T02:50:55;5.55;;;4.65;;
14994;SDS011;7593;49.006;8.372;2023-04-25T02:53:22;4.95;;;4.50;;
14994;SDS011;7593;49.006;8.372;2023-04-25T02:55:49;5.13;;;4.63;;
14994;SDS011;7593;49.006;8.372;2023-04-25T02:58:17;5.00;;;4.60;;
14994;SDS011;7593;49.006;8.372;2023-04-25T03:00:44;5.32;;;4.82;;
14994;SDS011;7593;49.006;8.372;2023-04-25T03:03:11;5.80;;;4.80;;
14994;SDS011;7593;49.006;8.372;2023-04-25T03:05:39;5.07;;;4.68;;
14994;SDS011;7593;49.006;8.372;2023-04-25T03:08:06;5.72;;;4.53;;
14994;SDS011;7593;49.006;8.372;2023-04-25T03:10:32;4.95;;;4.50;;
14994;SDS011;7593;49.006;8.372;2023-04-25T03:12:59;5.07;;;4.57;;
14994;SDS011;7593;49.006;8.372;2023-04-25T03:15:26;5.97;;;5.13;;
14994;SDS011;7593;49.006;8.372;2023-04-25T03:17:53;6.15;;;5.40;;
14994;SDS011;7593;49.006;8.372;2023-04-25T03:20:20;5.20;;;4.75;;
14994;SDS011;7593;49.006;8.372;2023-04-25T03:22:48;5.43;;;4.93;;
14994;SDS011;7593;49.006;8.372;2023-04-25T03:25:15;7.70;;;4.75;;
14994;SDS011;7593;49.006;8.372;2023-04-25T03:27:42;4.75;;;4.35;;
14994;SDS011;7593;49.006;8.372;2023-04-25T03:30:09;4.95;;;4.43;;
14994;SDS011;7593;49.006;8.372;2023-04-25T03:32:36;5.13;;;4.63;;
14994;SDS011;7593;49.006;8.372;2023-04-25T03:35:03;5.95;;;4.80;;
14994;SDS011;7593;49.006;8.372;2023-04-25T03:37:30;5.78;;;4.45;;
14994;SDS011;7593;49.006;8.372;2023-04-25T03:39:58;5.00;;;4.25;;
14994;SDS011;7593;49.006;8.372;2023-04-25T03:42:25;4.82;;;4.43;;
14994;SDS011;7593;49.006;8.372;2023-04-25T03:44:51;4.95;;;4.53;;
14994;SDS011;7593;49.006;8.372;2023-04-25T03:47:18;4.63;;;3.85;;
14994;SDS011;7593;49.006;8.372;2023-04-25T03:49:45;5.13;;;4.63;;
14994;SDS011;7593;49.006;8.372;2023-04-25T03:52:12;4.75;;;4.35;;
14994;SDS011;7593;49.006;8.372;2023-04-25T03:54:38;5.13;;;4.47;;
14994;SDS011;7593;49.006;8.372;2023-04-25T03:57:06;5.03;;;4.63;;
14994;SDS011;7593;49.006;8.372;2023-04-25T03:59:33;4.63;;;4.22;;
14994;SDS011;7593;49.006;8.372;2023-04-25T04:02:00;4.93;;;4.20;;
14994;SDS011;7593;49.006;8.372;2023-04-25T04:04:27;5.00;;;4.50;;
14994;SDS011;7593;49.006;8.372;2023-04-25T04:06:53;7.20;;;4.43;;
14994;SDS011;7593;49.006;8.372;2023-04-25T04:09:20;5.18;;;4.68;;
14994;SDS011;7593;49.006;8.372;2023-04-25T04:11:47;5.10;;;4.70;;
14994;SDS011;7593;49.006;8.372;2023-04-25T04:14:15;4.88;;;4.43;;
14994;SDS011;7593;49.006;8.372;2023-04-25T04:16:42;4.97;;;4.07;;
14994;SDS011;7593;49.006;8.372;2023-04-25T04:19:09;5.40;;;4.57;;
14994;SDS011;7593;49.006;8.372;2023-04-25T04:21:36;4.63;;;4.22;;
14994;SDS011;7593;49.006;8.372;2023-04-25T04:24:03;4.88;;;4.47;;
14994;SDS011;7593;49.006;8.372;2023-04-25T04:26:31;5.25;;;4.75;;
14994;SDS011;7593;49.006;8.372;2023-04-25T04:28:59;6.45;;;4.60;;
14994;SDS011;7593;49.006;8.372;2023-04-25T04:31:27;5.22;;;4.72;;
14994;SDS011;7593;49.006;8.372;2023-04-25T04:33:55;5.00;;;4.50;;
14994;SDS011;7593;49.006;8.372;2023-04-25T04:36:21;4.75;;;4.25;;
14994;SDS011;7593;49.006;8.372;2023-04-25T04:38:51;4.68;;;4.28;;
14994;SDS011;7593;49.006;8.372;2023-04-25T04:41:17;6.68;;;4.40;;
14994;SDS011;7593;49.006;8.372;2023-04-25T04:43:45;5.03;;;4.15;;
14994;SDS011;7593;49.006;8.372;2023-04-25T04:46:12;12.48;;;5.20;;
14994;SDS011;7593;49.006;8.372;2023-04-25T04:48:40;14.18;;;7.32;;
14994;SDS011;7593;49.006;8.372;2023-04-25T04:51:07;4.65;;;4.20;;
14994;SDS011;7593;49.006;8.372;2023-04-25T04:53:34;9.75;;;4.50;;
14994;SDS011;7593;49.006;8.372;2023-04-25T04:56:01;5.57;;;5.05;;
14994;SDS011;7593;49.006;8.372;2023-04-25T04:58:27;5.10;;;4.60;;
14994;SDS011;7593;49.006;8.372;2023-04-25T05:00:54;5.07;;;4.60;;
14994;SDS011;7593;49.006;8.372;2023-04-25T05:03:21;4.72;;;4.20;;
14994;SDS011;7593;49.006;8.372;2023-04-25T05:05:50;5.88;;;4.50;;
14994;SDS011;7593;49.006;8.372;2023-04-25T05:08:17;4.40;;;4.03;;
14994;SDS011;7593;49.006;8.372;2023-04-25T05:10:44;4.95;;;4.55;;
14994;SDS011;7593;49.006;8.372;2023-04-25T05:13:10;4.80;;;4.35;;
14994;SDS011;7593;49.006;8.372;2023-04-25T05:15:37;5.00;;;4.32;;
14994;SDS011;7593;49.006;8.372;2023-04-25T05:18:04;4.95;;;4.47;;
14994;SDS011;7593;49.006;8.372;2023-04-25T05:20:31;4.40;;;4.00;;
14994;SDS011;7593;49.006;8.372;2023-04-25T05:22:59;4.90;;;4.40;;
14994;SDS011;7593;49.006;8.372;2023-04-25T05:25:26;4.97;;;4.35;;
14994;SDS011;7593;49.006;8.372;2023-04-25T05:27:53;4.82;;;4.32;;
14994;SDS011;7593;49.006;8.372;2023-04-25T05:30:19;4.68;;;4.20;;
14994;SDS011;7593;49.006;8.372;2023-04-25T05:32:46;4.40;;;4.00;;
14994;SDS011;7593;49.006;8.372;2023-04-25T05:35:13;5.53;;;4.07;;
14994;SDS011;7593;49.006;8.372;2023-04-25T05:37:40;5.90;;;4.30;;
14994;SDS011;7593;49.006;8.372;2023-04-25T05:40:09;4.15;;;3.75;;
14994;SDS011;7593;49.006;8.372;2023-04-25T05:42:36;4.55;;;4.10;;
14994;SDS011;7593;49.006;8.372;2023-04-25T05:45:03;4.50;;;4.10;;
14994;SDS011;7593;49.006;8.372;2023-04-25T05:47:30;4.80;;;4.40;;
14994;SDS011;7593;49.006;8.372;2023-04-25T05:49:57;5.07;;;4.30;;
14994;SDS011;7593;49.006;8.372;2023-04-25T05:52:24;5.70;;;4.10;;
14994;SDS011;7593;49.006;8.372;2023-04-25T05:54:51;4.45;;;4.05;;
14994;SDS011;7593;49.006;8.372;2023-04-25T05:57:20;5.07;;;4.57;;
14994;SDS011;7593;49.006;8.372;2023-04-25T05:59:48;6.30;;;4.20;;
14994;SDS011;7593;49.006;8.372;2023-04-25T06:02:15;4.70;;;4.20;;
14994;SDS011;7593;49.006;8.372;2023-04-25T06:04:43;4.97;;;4.30;;
14994;SDS011;7593;49.006;8.372;2023-04-25T06:07:09;5.15;;;4.65;;
14994;SDS011;7593;49.006;8.372;2023-04-25T06:09:36;5.28;;;4.78;;
14994;SDS011;7593;49.006;8.372;2023-04-25T06:12:04;5.47;;;4.95;;
14994;SDS011;7593;49.006;8.372;2023-04-25T06:14:33;6.45;;;5.10;;
14994;SDS011;7593;49.006;8.372;2023-04-25T06:17:00;5.07;;;4.68;;
14994;SDS011;7593;49.006;8.372;2023-04-25T06:19:31;6.38;;;5.28;;
14994;SDS011;7593;49.006;8.372;2023-04-25T06:21:58;5.97;;;5.22;;
14994;SDS011;7593;49.006;8.372;2023-04-25T06:24:25;6.10;;;5.50;;
14994;SDS011;7593;49.006;8.372;2023-04-25T06:26:52;6.53;;;5.60;;
14994;SDS011;7593;49.006;8.372;2023-04-25T06:29:19;5.88;;;5.38;;
14994;SDS011;7593;49.006;8.372;2023-04-25T06:31:47;6.53;;;4.93;;
14994;SDS011;7593;49.006;8.372;2023-04-25T06:34:14;5.35;;;4.82;;
14994;SDS011;7593;49.006;8.372;2023-04-25T06:36:42;4.70;;;4.30;;
14994;SDS011;7593;49.006;8.372;2023-04-25T06:39:09;5.30;;;4.80;;
14994;SDS011;7593;49.006;8.372;2023-04-25T06:41:36;6.25;;;5.50;;
14994;SDS011;7593;49.006;8.372;2023-04-25T06:44:03;6.22;;;5.07;;
14994;SDS011;7593;49.006;8.372;2023-04-25T06:46:29;6.97;;;6.30;;
14994;SDS011;7593;49.006;8.372;2023-04-25T06:48:57;6.45;;;5.85;;
14994;SDS011;7593;49.006;8.372;2023-04-25T06:51:24;6.85;;;6.03;;
14994;SDS011;7593;49.006;8.372;2023-04-25T06:53:54;6.07;;;5.57;;
14994;SDS011;7593;49.006;8.372;2023-04-25T06:56:21;6.68;;;5.60;;
14994;SDS011;7593;49.006;8.372;2023-04-25T06:58:48;6.13;;;5.53;;
14994;SDS011;7593;49.006;8.372;2023-04-25T07:01:15;7.30;;;6.60;;
14994;SDS011;7593;49.006;8.372;2023-04-25T07:03:42;7.43;;;5.80;;
14994;SDS011;7593;49.006;8.372;2023-04-25T07:06:10;6.82;;;6.13;;
14994;SDS011;7593;49.006;8.372;2023-04-25T07:08:37;6.95;;;6.22;;
14994;SDS011;7593;49.006;8.372;2023-04-25T07:11:03;6.97;;;6.28;;
14994;SDS011;7593;49.006;8.372;2023-04-25T07:13:30;7.03;;;6.32;;
14994;SDS011;7593;49.006;8.372;2023-04-25T07:15:57;6.45;;;5.80;;
14994;SDS011;7593;49.006;8.372;2023-04-25T07:18:24;7.80;;;7.00;;
14994;SDS011;7593;49.006;8.372;2023-04-25T07:20:50;7.10;;;6.40;;
14994;SDS011;7593;49.006;8.372;2023-04-25T07:23:19;7.97;;;7.10;;
14994;SDS011;7593;49.006;8.372;2023-04-25T07:25:46;9.70;;;8.80;;
14994;SDS011;7593;49.006;8.372;2023-04-25T07:28:13;8.38;;;7.57;;
14994;SDS011;7593;49.006;8.372;2023-04-25T07:30:40;11.40;;;9.52;;
14994;SDS011;7593;49.006;8.372;2023-04-25T07:33:07;12.50;;;11.30;;
14994;SDS011;7593;49.006;8.372;2023-04-25T07:35:33;7.40;;;6.70;;
14994;SDS011;7593;49.006;8.372;2023-04-25T07:38:01;8.75;;;7.90;;
14994;SDS011;7593;49.006;8.372;2023-04-25T07:40:29;7.50;;;6.80;;
14994;SDS011;7593;49.006;8.372;2023-04-25T07:42:56;8.00;;;7.20;;
14994;SDS011;7593;49.006;8.372;2023-04-25T07:45:23;13.25;;;11.85;;
14994;SDS011;7593;49.006;8.372;2023-04-25T07:47:49;9.15;;;8.30;;
14994;SDS011;7593;49.006;8.372;2023-04-25T07:50:16;11.98;;;8.23;;
14994;SDS011;7593;49.006;8.372;2023-04-25T07:52:43;9.50;;;8.57;;
14994;SDS011;7593;49.006;8.372;2023-04-25T07:55:10;11.57;;;10.38;;
14994;SDS011;7593;49.006;8.372;2023-04-25T07:57:38;9.35;;;8.45;;
14994;SDS011;7593;49.006;8.372;2023-04-25T08:00:06;8.60;;;7.78;;
14994;SDS011;7593;49.006;8.372;2023-04-25T08:02:36;9.13;;;8.15;;
14994;SDS011;7593;49.006;8.372;2023-04-25T08:05:03;9.02;;;8.02;;
14994;SDS011;7593;49.006;8.372;2023-04-25T08:07:33;8.88;;;7.97;;
14994;SDS011;7593;49.006;8.372;2023-04-25T08:10:00;10.45;;;8.88;;
14994;SDS011;7593;49.006;8.372;2023-04-25T08:12:26;9.02;;;8.23;;
14994;SDS011;7593;49.006;8.372;2023-04-25T08:14:54;9.27;;;8.05;;
14994;SDS011;7593;49.006;8.372;2023-04-25T08:17:21;8.60;;;7.80;;
14994;SDS011;7593;49.006;8.372;2023-04-25T08:19:48;9.55;;;8.65;;
14994;SDS011;7593;49.006;8.372;2023-04-25T08:22:15;9.77;;;8.70;;
14994;SDS011;7593;49.006;8.372;2023-04-25T08:24:42;10.15;;;9.02;;
14994;SDS011;7593;49.006;8.372;2023-04-25T08:27:08;10.15;;;9.25;;
14994;SDS011;7593;49.006;8.372;2023-04-25T08:29:36;10.48;;;9.45;;
14994;SDS011;7593;49.006;8.372;2023-04-25T08:32:04;10.82;;;9.07;;
14994;SDS011;7593;49.006;8.372;2023-04-25T08:34:31;10.90;;;9.80;;
14994;SDS011;7593;49.006;8.372;2023-04-25T08:36:58;10.85;;;9.75;;
14994;SDS011;7593;49.006;8.372;2023-04-25T08:39:24;12.00;;;10.48;;
14994;SDS011;7593;49.006;8.372;2023-04-25T08:41:51;11.90;;;10.73;;
14994;SDS011;7593;49.006;8.372;2023-04-25T08:44:19;10.88;;;9.88;;
14994;SDS011;7593;49.006;8.372;2023-04-25T08:46:47;11.85;;;10.65;;
14994;SDS011;7593;49.006;8.372;2023-04-25T08:49:16;11.82;;;10.65;;
14994;SDS011;7593;49.006;8.372;2023-04-25T08:51:44;12.18;;;10.65;;
14994;SDS011;7593;49.006;8.372;2023-04-25T08:54:13;10.85;;;9.75;;
14994;SDS011;7593;49.006;8.372;2023-04-25T08:56:41;10.02;;;9.00;;
14994;SDS011;7593;49.006;8.372;2023-04-25T08:59:11;10.52;;;9.52;;
14994;SDS011;7593;49.006;8.372;2023-04-25T09:01:38;11.15;;;9.98;;
14994;SDS011;7593;49.006;8.372;2023-04-25T09:04:05;10.80;;;9.70;;
14994;SDS011;7593;49.006;8.372;2023-04-25T09:06:34;13.10;;;10.10;;
14994;SDS011;7593;49.006;8.372;2023-04-25T09:09:02;20.45;;;10.48;;
14994;SDS011;7593;49.006;8.372;2023-04-25T09:11:30;15.35;;;10.68;;
14994;SDS011;7593;49.006;8.372;2023-04-25T09:14:09;14.27;;;11.98;;
14994;SDS011;7593;49.006;8.372;2023-04-25T09:16:47;14.90;;;11.85;;
14994;SDS011;7593;49.006;8.372;2023-04-25T09:19:25;12.25;;;11.05;;
14994;SDS011;7593;49.006;8.372;2023-04-25T09:21:55;12.32;;;10.82;;
14994;SDS011;7593;49.006;8.372;2023-04-25T09:27:06;13.52;;;11.60;;
14994;SDS011;7593;49.006;8.372;2023-04-25T09:29:34;13.60;;;11.85;;
14994;SDS011;7593;49.006;8.372;2023-04-25T09:32:13;13.35;;;11.95;;
14994;SDS011;7593;49.006;8.372;2023-04-25T09:34:42;13.05;;;11.60;;
14994;SDS011;7593;49.006;8.372;2023-04-25T09:37:16;19.98;;;12.07;;
14994;SDS011;7593;49.006;8.372;2023-04-25T09:39:44;14.50;;;12.50;;
14994;SDS011;7593;49.006;8.372;2023-04-25T09:42:11;15.32;;;13.70;;
14994;SDS011;7593;49.006;8.372;2023-04-25T09:44:41;19.00;;;14.38;;
14994;SDS011;7593;49.006;8.372;2023-04-25T09:47:09;13.93;;;12.48;;
14994;SDS011;7593;49.006;8.372;2023-04-25T09:49:38;15.07;;;13.52;;
14994;SDS011;7593;49.006;8.372;2023-04-25T09:52:07;17.25;;;14.52;;
14994;SDS011;7593;49.006;8.372;2023-04-25T09:54:36;16.05;;;13.65;;
14994;SDS011;7593;49.006;8.372;2023-04-25T09:57:05;17.80;;;14.02;;
14994;SDS011;7593;49.006;8.372;2023-04-25T09:59:37;19.00;;;15.48;;
14994;SDS011;7593;49.006;8.372;2023-04-25T10:02:06;19.02;;;15.15;;
14994;SDS011;7593;49.006;8.372;2023-04-25T10:04:34;18.73;;;14.93;;
14994;SDS011;7593;49.006;8.372;2023-04-25T10:07:01;19.88;;;15.85;;
14994;SDS011;7593;49.006;8.372;2023-04-25T10:09:31;21.92;;;16.00;;
14994;SDS011;7593;49.006;8.372;2023-04-25T10:12:02;18.10;;;15.25;;
14994;SDS011;7593;49.006;8.372;2023-04-25T10:14:29;17.63;;;15.73;;
14994;SDS011;7593;49.006;8.372;2023-04-25T10:16:57;19.17;;;16.13;;
14994;SDS011;7593;49.006;8.372;2023-04-25T10:19:24;20.42;;;16.05;;
14994;SDS011;7593;49.006;8.372;2023-04-25T10:21:52;24.02;;;16.13;;
14994;SDS011;7593;49.006;8.372;2023-04-25T10:24:21;21.38;;;14.95;;
14994;SDS011;7593;49.006;8.372;2023-04-25T10:26:49;22.85;;;15.48;;
14994;SDS011;7593;49.006;8.372;2023-04-25T10:29:22;20.75;;;15.23;;
14994;SDS011;7593;49.006;8.372;2023-04-25T10:31:50;19.63;;;15.50;;
14994;SDS011;7593;49.006;8.372;2023-04-25T10:34:17;17.77;;;15.00;;
14994;SDS011;7593;49.006;8.372;2023-04-25T10:36:49;22.15;;;15.55;;
14994;SDS011;7593;49.006;8.372;2023-04-25T10:39:21;17.98;;;14.90;;
14994;SDS011;7593;49.006;8.372;2023-04-25T10:41:52;17.98;;;14.50;;
14994;SDS011;7593;49.006;8.372;2023-04-25T10:44:20;15.02;;;12.82;;
14994;SDS011;7593;49.006;8.372;2023-04-25T10:46:48;19.13;;;13.90;;
14994;SDS011;7593;49.006;8.372;2023-04-25T10:49:31;16.67;;;12.80;;
14994;SDS011;7593;49.006;8.372;2023-04-25T10:54:55;15.88;;;12.27;;
14994;SDS011;7593;49.006;8.372;2023-04-25T10:57:26;16.02;;;11.38;;
14994;SDS011;7593;49.006;8.372;2023-04-25T11:00:07;16.55;;;12.35;;
14994;SDS011;7593;49.006;8.372;2023-04-25T11:02:38;13.70;;;11.25;;
14994;SDS011;7593;49.006;8.372;2023-04-25T11:05:08;14.48;;;11.13;;
14994;SDS011;7593;49.006;8.372;2023-04-25T11:07:37;16.02;;;12.15;;
14994;SDS011;7593;49.006;8.372;2023-04-25T11:10:09;16.23;;;12.02;;
14994;SDS011;7593;49.006;8.372;2023-04-25T11:12:36;15.85;;;11.88;;
14994;SDS011;7593;49.006;8.372;2023-04-25T11:15:03;16.60;;;12.52;;
14994;SDS011;7593;49.006;8.372;2023-04-25T11:17:31;15.45;;;13.00;;
14994;SDS011;7593;49.006;8.372;2023-04-25T11:19:59;15.75;;;12.88;;
14994;SDS011;7593;49.006;8.372;2023-04-25T11:22:31;17.30;;;13.95;;
14994;SDS011;7593;49.006;8.372;2023-04-25T11:24:58;20.65;;;16.05;;
14994;SDS011;7593;49.006;8.372;2023-04-25T11:27:30;15.77;;;13.80;;
14994;SDS011;7593;49.006;8.372;2023-04-25T11:29:57;16.13;;;13.07;;
14994;SDS011;7593;49.006;8.372;2023-04-25T11:32:23;19.10;;;12.43;;
14994;SDS011;7593;49.006;8.372;2023-04-25T11:34:50;16.17;;;12.73;;
14994;SDS011;7593;49.006;8.372;2023-04-25T11:37:21;11.23;;;9.02;;
14994;SDS011;7593;49.006;8.372;2023-04-25T11:39:48;6.72;;;6.13;;
14994;SDS011;7593;49.006;8.372;2023-04-25T11:42:14;6.82;;;5.70;;
14994;SDS011;7593;49.006;8.372;2023-04-25T11:44:41;7.45;;;4.35;;
14994;SDS011;7593;49.006;8.372;2023-04-25T11:47:09;5.05;;;4.55;;
14994;SDS011;7593;49.006;8.372;2023-04-25T11:49:36;8.73;;;7.18;;
14994;SDS011;7593;49.006;8.372;2023-04-25T11:52:03;7.78;;;6.43;;
14994;SDS011;7593;49.006;8.372;2023-04-25T11:54:36;4.68;;;4.18;;
14994;SDS011;7593;49.006;8.372;2023-04-25T11:57:03;5.20;;;4.70;;
14994;SDS011;7593;49.006;8.372;2023-04-25T11:59:30;5.90;;;4.68;;
14994;SDS011;7593;49.006;8.372;2023-04-25T12:01:57;10.90;;;8.32;;
14994;SDS011;7593;49.006;8.372;2023-04-25T12:04:26;12.90;;;7.55;;
14994;SDS011;7593;49.006;8.372;2023-04-25T12:06:56;9.13;;;7.70;;
14994;SDS011;7593;49.006;8.372;2023-04-25T12:09:27;10.80;;;8.80;;
14994;SDS011;7593;49.006;8.372;2023-04-25T12:11:57;10.27;;;9.20;;
14994;SDS011;7593;49.006;8.372;2023-04-25T12:14:25;17.92;;;13.98;;
14994;SDS011;7593;49.006;8.372;2023-04-25T12:16:54;13.07;;;9.57;;
14994;SDS011;7593;49.006;8.372;2023-04-25T12:19:22;16.38;;;10.45;;
14994;SDS011;7593;49.006;8.372;2023-04-25T12:21:49;9.20;;;7.75;;
14994;SDS011;7593;49.006;8.372;2023-04-25T12:24:18;10.55;;;8.30;;
14994;SDS011;7593;49.006;8.372;2023-04-25T12:26:50;9.55;;;7.40;;
14994;SDS011;7593;49.006;8.372;2023-04-25T12:29:21;9.63;;;6.97;;
14994;SDS011;7593;49.006;8.372;2023-04-25T12:31:50;4.72;;;4.15;;
14994;SDS011;7593;49.006;8.372;2023-04-25T12:34:18;4.72;;;3.67;;
14994;SDS011;7593;49.006;8.372;2023-04-25T12:36:44;4.82;;;3.80;;
14994;SDS011;7593;49.006;8.372;2023-04-25T12:39:15;3.80;;;3.40;;
14994;SDS011;7593;49.006;8.372;2023-04-25T12:41:42;5.50;;;3.78;;
14994;SDS011;7593;49.006;8.372;2023-04-25T12:44:09;5.78;;;3.80;;
14994;SDS011;7593;49.006;8.372;2023-04-25T12:46:37;3.90;;;3.40;;
14994;SDS011;7593;49.006;8.372;2023-04-25T12:49:05;3.63;;;3.10;;
14994;SDS011;7593;49.006;8.372;2023-04-25T12:51:33;4.72;;;4.25;;
14994;SDS011;7593;49.006;8.372;2023-04-25T12:54:00;5.22;;;3.70;;
14994;SDS011;7593;49.006;8.372;2023-04-25T12:56:27;4.18;;;3.78;;
14994;SDS011;7593;49.006;8.372;2023-04-25T12:58:55;4.78;;;3.72;;
14994;SDS011;7593;49.006;8.372;2023-04-25T13:01:22;3.92;;;3.63;;
14994;SDS011;7593;49.006;8.372;2023-04-25T13:03:51;4.35;;;3.95;;
14994;SDS011;7593;49.006;8.372;2023-04-25T13:06:18;5.72;;;4.43;;
14994;SDS011;7593;49.006;8.372;2023-04-25T13:08:46;5.10;;;3.80;;
14994;SDS011;7593;49.006;8.372;2023-04-25T13:11:13;4.82;;;4.32;;
14994;SDS011;7593;49.006;8.372;2023-04-25T13:13:40;5.07;;;4.68;;
14994;SDS011;7593;49.006;8.372;2023-04-25T13:16:07;4.85;;;3.80;;
14994;SDS011;7593;49.006;8.372;2023-04-25T13:18:34;4.78;;;4.00;;
14994;SDS011;7593;49.006;8.372;2023-04-25T13:21:03;3.75;;;3.30;;
14994;SDS011;7593;49.006;8.372;2023-04-25T13:23:29;3.17;;;2.90;;
14994;SDS011;7593;49.006;8.372;2023-04-25T13:25:56;3.15;;;2.85;;
14994;SDS011;7593;49.006;8.372;2023-04-25T13:28:24;3.13;;;2.80;;
14994;SDS011;7593;49.006;8.372;2023-04-25T13:30:51;4.57;;;3.10;;
14994;SDS011;7593;49.006;8.372;2023-04-25T13:33:18;3.20;;;2.90;;
14994;SDS011;7593;49.006;8.372;2023-04-25T13:35:45;3.83;;;2.80;;
14994;SDS011;7593;49.006;8.372;2023-04-25T13:38:20;4.20;;;2.60;;
14994;SDS011;7593;49.006;8.372;2023-04-25T13:40:47;2.92;;;2.25;;
14994;SDS011;7593;49.006;8.372;2023-04-25T13:43:15;3.17;;;2.80;;
14994;SDS011;7593;49.006;8.372;2023-04-25T13:45:42;2.97;;;2.60;;
14994;SDS011;7593;49.006;8.372;2023-04-25T13:48:08;4.03;;;2.60;;
14994;SDS011;7593;49.006;8.372;2023-04-25T13:50:35;2.70;;;2.50;;
14994;SDS011;7593;49.006;8.372;2023-04-25T13:53:02;3.78;;;3.10;;
14994;SDS011;7593;49.006;8.372;2023-04-25T13:55:30;3.30;;;3.00;;
14994;SDS011;7593;49.006;8.372;2023-04-25T13:57:57;3.53;;;3.22;;
14994;SDS011;7593;49.006;8.372;2023-04-25T14:00:24;3.40;;;2.45;;
14994;SDS011;7593;49.006;8.372;2023-04-25T14:02:51;3.63;;;3.33;;
14994;SDS011;7593;49.006;8.372;2023-04-25T14:05:18;4.13;;;3.40;;
14994;SDS011;7593;49.006;8.372;2023-04-25T14:07:45;5.15;;;4.65;;
14994;SDS011;7593;49.006;8.372;2023-04-25T14:10:12;4.78;;;3.30;;
14994;SDS011;7593;49.006;8.372;2023-04-25T14:12:40;4.10;;;3.50;;
14994;SDS011;7593;49.006;8.372;2023-04-25T14:15:07;4.05;;;3.63;;
14994;SDS011;7593;49.006;8.372;2023-04-25T14:17:34;4.75;;;3.20;;
14994;SDS011;7593;49.006;8.372;2023-04-25T14:20:01;3.78;;;2.78;;
14994;SDS011;7593;49.006;8.372;2023-04-25T14:22:30;3.50;;;2.70;;
14994;SDS011;7593;49.006;8.372;2023-04-25T14:24:57;5.22;;;3.30;;
14994;SDS011;7593;49.006;8.372;2023-04-25T14:27:24;3.40;;;2.85;;
14994;SDS011;7593;49.006;8.372;2023-04-25T14:29:53;5.45;;;2.80;;
14994;SDS011;7593;49.006;8.372;2023-04-25T14:32:19;3.60;;;2.55;;
14994;SDS011;7593;49.006;8.372;2023-04-25T14:34:46;3.67;;;2.72;;
14994;SDS011;7593;49.006;8.372;2023-04-25T14:37:13;4.00;;;2.85;;
14994;SDS011;7593;49.006;8.372;2023-04-25T14:39:41;4.70;;;3.53;;
14994;SDS011;7593;49.006;8.372;2023-04-25T14:42:08;6.13;;;4.07;;
14994;SDS011;7593;49.006;8.372;2023-04-25T14:44:36;2.88;;;2.50;;
14994;SDS011;7593;49.006;8.372;2023-04-25T14:47:06;3.47;;;2.90;;
14994;SDS011;7593;49.006;8.372;2023-04-25T14:49:33;5.63;;;3.70;;
14994;SDS011;7593;49.006;8.372;2023-04-25T14:52:00;3.92;;;2.78;;
14994;SDS011;7593;49.006;8.372;2023-04-25T14:54:27;4.05;;;2.90;;
14994;SDS011;7593;49.006;8.372;2023-04-25T14:56:53;3.85;;;3.00;;
14994;SDS011;7593;49.006;8.372;2023-04-25T14:59:20;3.47;;;3.17;;
14994;SDS011;7593;49.006;8.372;2023-04-25T15:01:47;6.57;;;4.55;;
14994;SDS011;7593;49.006;8.372;2023-04-25T15:04:15;6.00;;;4.78;;